Time;durP1;ratioP1;P1;durP2;ratioP2;P2;SDS_P1;SDS_P2;PMS_P1;PMS_P2;Temp;Humidity;BMP_temperature;BMP_pressure;BME280_temperature;BME280_humidity;BME280_pressure;Samples;Min_cycle;Max_cycle;Signal;HPM_P1;HPM_P2
2023/12/17 00:04:57;;;;;;;18.33;3.05;;;;;;;16.50;100.00;102098.53;10584974;27;20061;-83
2023/12/17 00:10:21;;;;;;;10.80;2.95;;;;;;;16.54;100.00;102108.38;10575306;27;20047;-83
2023/12/17 00:15:43;;;;;;;15.82;3.08;;;;;;;16.45;100.00;102117.13;10603314;27;20400;-83
2023/12/17 00:21:09;;;;;;;13.13;2.42;;;;;;;16.41;100.00;102115.28;10567892;27;20060;-83
2023/12/17 00:26:31;;;;;;;11.52;2.45;;;;;;;16.38;100.00;102125.00;10551216;27;20071;-83
2023/12/17 00:31:54;;;;;;;11.35;2.75;;;;;;;16.36;100.00;102125.00;10565502;27;20035;-84
2023/12/17 00:37:18;;;;;;;15.55;2.95;;;;;;;16.40;100.00;102129.50;10584719;27;20054;-84
2023/12/17 00:42:42;;;;;;;13.07;2.50;;;;;;;16.32;100.00;102124.06;10590177;27;20055;-84
2023/12/17 00:48:04;;;;;;;19.08;2.90;;;;;;;16.36;100.00;102138.31;10568745;27;20055;-86
2023/12/17 00:53:28;;;;;;;14.93;3.28;;;;;;;16.44;100.00;102143.75;10568325;27;20049;-83
2023/12/17 00:58:52;;;;;;;27.48;3.25;;;;;;;16.46;100.00;102150.00;10562728;27;20039;-83
2023/12/17 01:04:14;;;;;;;13.88;3.05;;;;;;;16.49;100.00;102150.03;10582493;27;20073;-84
2023/12/17 01:09:39;;;;;;;15.82;2.35;;;;;;;16.46;100.00;102164.25;10565015;27;20052;-83
2023/12/17 01:15:04;;;;;;;13.13;2.22;;;;;;;16.50;100.00;102158.06;10578073;27;20051;-82
2023/12/17 01:20:30;;;;;;;16.88;3.03;;;;;;;16.54;100.00;102156.34;10570995;28;20408;-83
2023/12/17 01:25:54;;;;;;;9.98;2.78;;;;;;;16.64;100.00;102174.28;10568457;28;20066;-83
2023/12/17 01:31:18;;;;;;;16.52;2.88;;;;;;;16.68;100.00;102181.44;10597377;28;20039;-83
2023/12/17 01:36:41;;;;;;;16.35;3.38;;;;;;;16.81;100.00;102177.16;10573765;27;20400;-83
2023/12/17 01:42:06;;;;;;;15.38;4.15;;;;;;;16.89;100.00;102170.16;10571223;27;20449;-84
2023/12/17 01:47:29;;;;;;;12.48;3.33;;;;;;;16.89;100.00;102170.16;10576279;27;20044;-83
2023/12/17 01:52:52;;;;;;;19.13;4.65;;;;;;;16.85;100.00;102176.34;10557295;27;20051;-83
2023/12/17 01:58:17;;;;;;;16.92;3.75;;;;;;;16.90;100.00;102169.28;10558590;27;20046;-84
2023/12/17 02:03:39;;;;;;;15.43;4.10;;;;;;;16.92;100.00;102183.56;10606465;27;20051;-83
2023/12/17 02:09:01;;;;;;;21.48;3.63;;;;;;;16.89;100.00;102180.81;10586588;27;20096;-83
2023/12/17 02:14:25;;;;;;;13.35;2.45;;;;;;;16.80;100.00;102188.72;10589806;27;20047;-83
2023/12/17 02:19:48;;;;;;;11.63;4.70;;;;;;;16.86;100.00;102187.03;10571662;27;20062;-82
2023/12/17 02:25:15;;;;;;;7.22;2.58;;;;;;;16.89;100.00;102202.16;10558997;27;20063;-83
2023/12/17 02:30:37;;;;;;;13.30;2.63;;;;;;;16.92;100.00;102200.44;10568138;27;20054;-83
2023/12/17 02:36:00;;;;;;;11.27;2.35;;;;;;;16.90;100.00;102203.97;10590476;27;20609;-84
2023/12/17 02:41:24;;;;;;;14.07;2.60;;;;;;;16.82;100.00;102205.63;10607166;27;20509;-86
2023/12/17 02:46:57;;;;;;;10.90;2.63;;;;;;;16.76;100.00;102210.88;10576639;27;20070;-86
2023/12/17 02:52:23;;;;;;;12.48;2.90;;;;;;;16.76;100.00;102218.88;10592896;27;20043;-86
2023/12/17 02:57:49;;;;;;;11.50;2.70;;;;;;;16.82;100.00;102218.97;10549125;27;20073;-85
2023/12/17 03:03:12;;;;;;;11.57;2.55;;;;;;;16.76;100.00;102218.88;10564120;27;20039;-85
2023/12/17 03:08:38;;;;;;;18.95;2.78;;;;;;;16.83;100.00;102226.09;10553551;27;20056;-84
2023/12/17 03:14:03;;;;;;;9.75;2.38;;;;;;;16.88;100.00;102227.94;10598540;27;20070;-85
2023/12/17 03:19:25;;;;;;;10.57;2.40;;;;;;;16.87;100.00;102226.16;10579197;27;20047;-84
2023/12/17 03:24:48;;;;;;;8.40;1.77;;;;;;;16.90;100.00;102225.31;10589314;27;20116;-84
2023/12/17 03:30:13;;;;;;;5.85;2.17;;;;;;;16.86;100.00;102221.72;10577625;27;20070;-86
2023/12/17 03:35:35;;;;;;;10.75;2.47;;;;;;;16.85;100.00;102224.34;10585819;27;20051;-85
2023/12/17 03:40:57;;;;;;;7.93;2.67;;;;;;;16.83;100.00;102237.66;10575780;27;20579;-86
2023/12/17 03:46:22;;;;;;;8.35;2.58;;;;;;;16.93;100.00;102230.69;10575614;27;20043;-85
2023/12/17 03:51:45;;;;;;;9.45;2.25;;;;;;;17.02;100.00;102234.38;10588691;27;20513;-86
2023/12/17 03:57:07;;;;;;;12.00;2.15;;;;;;;16.94;100.00;102235.13;10579014;27;20130;-86
2023/12/17 04:02:32;;;;;;;10.63;2.65;;;;;;;16.55;100.00;102254.09;10596527;27;20053;-83
2023/12/17 04:07:54;;;;;;;11.68;2.90;;;;;;;16.16;100.00;102267.69;10602651;27;20055;-86
2023/12/17 04:13:17;;;;;;;10.52;3.95;;;;;;;16.20;100.00;102281.13;10555699;27;20132;-84
2023/12/17 04:18:41;;;;;;;11.73;4.85;;;;;;;16.22;100.00;102289.13;10588562;27;20040;-85
2023/12/17 04:24:06;;;;;;;20.35;4.68;;;;;;;16.20;100.00;102302.44;10600618;27;21449;-83
2023/12/17 04:29:29;;;;;;;12.90;4.18;;;;;;;16.15;100.00;102296.09;10603658;27;20104;-83
2023/12/17 04:34:55;;;;;;;13.10;3.15;;;;;;;16.22;100.00;102294.44;10578077;27;20062;-82
2023/12/17 04:40:18;;;;;;;12.43;2.70;;;;;;;16.26;100.00;102302.53;10564011;27;20043;-82
2023/12/17 04:45:43;;;;;;;13.13;3.35;;;;;;;16.24;100.00;102306.94;10577347;27;20069;-82
2023/12/17 04:51:09;;;;;;;9.15;1.98;;;;;;;16.20;100.00;102305.09;10575532;27;20059;-81
2023/12/17 04:56:33;;;;;;;12.07;2.67;;;;;;;16.20;100.00;102305.09;10565137;27;20043;-82
2023/12/17 05:01:55;;;;;;;11.35;3.03;;;;;;;16.22;100.00;102308.66;10546544;27;20052;-82
2023/12/17 05:07:20;;;;;;;12.80;2.70;;;;;;;16.25;100.00;102315.81;10568641;27;20540;-81
2023/12/17 05:12:43;;;;;;;15.98;2.72;;;;;;;15.94;100.00;102320.63;10556417;27;20045;-83
2023/12/17 05:18:06;;;;;;;12.45;2.83;;;;;;;15.80;100.00;102331.88;10565204;27;20044;-84
2023/12/17 05:23:31;;;;;;;10.15;2.08;;;;;;;15.76;100.00;102330.00;10571458;28;20127;-84
2023/12/17 05:28:53;;;;;;;11.25;2.58;;;;;;;15.80;100.00;102329.22;10576174;28;20047;-84
2023/12/17 05:34:19;;;;;;;10.15;2.55;;;;;;;15.92;100.00;102334.78;10560627;28;20060;-83
2023/12/17 05:39:43;;;;;;;11.32;2.30;;;;;;;16.04;100.00;102342.97;10548442;28;20127;-84
2023/12/17 05:45:07;;;;;;;13.15;3.00;;;;;;;16.12;100.00;102335.13;10598327;28;20573;-84
2023/12/17 05:50:30;;;;;;;12.20;2.65;;;;;;;16.18;100.00;102352.13;10583384;28;20047;-83
2023/12/17 05:55:55;;;;;;;9.50;1.90;;;;;;;16.20;100.00;102358.41;10548110;28;20074;-82
2023/12/17 06:01:18;;;;;;;14.90;2.25;;;;;;;16.22;100.00;102363.72;10554224;28;20479;-82
2023/12/17 06:06:40;;;;;;;14.18;2.70;;;;;;;16.20;100.00;102373.47;10575176;28;20048;-82
2023/12/17 06:12:04;;;;;;;13.60;2.10;;;;;;;16.20;100.00;102373.47;10585920;28;20039;-84
2023/12/17 06:17:27;;;;;;;10.27;2.45;;;;;;;16.19;100.00;102372.59;10577820;28;20051;-83
2023/12/17 06:22:50;;;;;;;12.48;2.20;;;;;;;16.07;100.00;102379.47;10592332;27;20047;-83
2023/12/17 06:28:13;;;;;;;14.50;3.38;;;;;;;16.05;100.00;102391.84;10593598;27;20049;-81
2023/12/17 06:33:36;;;;;;;12.02;3.25;;;;;;;15.87;100.00;102392.38;10599137;27;20600;-83
2023/12/17 06:38:58;;;;;;;15.38;2.97;;;;;;;15.76;100.00;102391.25;10599836;27;20507;-84
2023/12/17 06:44:22;;;;;;;11.35;2.05;;;;;;;15.79;100.00;102402.88;10596392;27;20489;-85
2023/12/17 06:49:46;;;;;;;9.30;2.08;;;;;;;15.94;100.00;102408.53;10590794;27;20147;-85
2023/12/17 06:55:10;;;;;;;11.88;2.10;;;;;;;16.06;100.00;102402.53;10580507;27;20047;-85
2023/12/17 07:00:35;;;;;;;9.20;2.65;;;;;;;16.21;100.00;102412.59;10593752;27;20095;-84
2023/12/17 07:06:01;;;;;;;9.68;1.98;;;;;;;16.41;100.00;102427.16;10580334;27;20058;-83
2023/12/17 07:11:24;;;;;;;16.83;3.88;;;;;;;16.52;100.00;102440.72;10609241;27;20047;-84
2023/12/17 07:16:50;;;;;;;10.00;2.08;;;;;;;16.67;100.00;102452.56;10606818;27;20054;-83
2023/12/17 07:22:12;;;;;;;9.15;2.25;;;;;;;16.86;100.00;102443.13;10599316;27;20058;-82
2023/12/17 07:27:35;;;;;;;16.98;3.90;;;;;;;17.22;100.00;102456.16;10594240;27;20047;-84
2023/12/17 07:32:59;;;;;;;11.45;3.80;;;;;;;17.37;100.00;102472.41;10594419;27;20050;-83
2023/12/17 07:38:22;;;;;;;9.98;2.08;;;;;;;17.91;100.00;102482.13;10607287;27;20119;-84
2023/12/17 07:43:44;;;;;;;8.43;2.15;;;;;;;18.23;100.00;102478.06;10593877;27;20386;-85
2023/12/17 07:49:09;;;;;;;5.63;1.63;;;;;;;18.39;100.00;102478.22;10586291;27;20412;-84
2023/12/17 07:54:32;;;;;;;11.07;2.30;;;;;;;18.29;100.00;102463.88;10558743;27;20051;-84
2023/12/17 07:59:54;;;;;;;9.68;2.05;;;;;;;18.12;100.00;102474.34;10578712;27;20130;-85
2023/12/17 08:05:18;;;;;;;12.13;1.60;;;;;;;17.99;100.00;102487.53;10594482;27;20599;-86
2023/12/17 08:10:41;;;;;;;11.35;2.08;;;;;;;17.99;100.00;102491.13;10590065;27;20047;-85
2023/12/17 08:16:03;;;;;;;6.88;1.50;;;;;;;18.07;100.00;102485.88;10597037;27;20473;-86
2023/12/17 08:21:27;;;;;;;9.15;1.88;;;;;;;18.22;100.00;102497.66;10590782;27;20092;-85
2023/12/17 08:26:50;;;;;;;6.43;2.00;;;;;;;18.47;100.00;102501.50;10601070;27;20054;-85
2023/12/17 08:32:12;;;;;;;6.95;1.33;;;;;;;18.48;100.00;102500.63;10603871;27;20069;-85
2023/12/17 08:37:42;;;;;;;7.65;1.70;;;;;;;18.28;100.00;102513.78;10549133;28;20047;-85
2023/12/17 08:43:06;;;;;;;11.48;1.63;;;;;;;18.36;100.00;102516.56;10596556;27;20047;-85
2023/12/17 08:48:29;;;;;;;6.85;1.58;;;;;;;18.65;100.00;102517.78;10600762;27;20135;-85
2023/12/17 08:53:53;;;;;;;6.20;1.60;;;;;;;19.47;100.00;102509.63;10590399;27;20047;-85
2023/12/17 08:59:16;;;;;;;10.70;1.90;;;;;;;19.95;100.00;102506.38;10588633;27;20038;-84
2023/12/17 09:04:41;;;;;;;10.55;1.90;;;;;;;20.61;100.00;102496.81;10589234;27;20051;-85
2023/12/17 09:10:11;;;;;;;6.88;1.10;;;;;;;19.97;100.00;102496.53;10577090;27;20103;-84
2023/12/17 09:15:34;;;;;;;7.47;1.42;;;;;;;19.75;100.00;102483.91;10595473;27;20054;-84
2023/12/17 09:20:57;;;;;;;8.13;1.25;;;;;;;19.46;100.00;102470.34;10576746;27;20043;-84
2023/12/17 09:26:22;;;;;;;5.53;1.50;;;;;;;19.96;100.00;102481.31;10587974;28;20047;-85
2023/12/17 09:31:46;;;;;;;6.75;1.73;;;;;;;20.32;100.00;102461.81;10601335;28;20055;-85
2023/12/17 09:37:10;;;;;;;8.57;1.60;;;;;;;19.96;100.00;102481.31;10593696;28;20043;-85
2023/12/17 09:42:33;;;;;;;4.38;1.23;;;;;;;19.61;100.00;102485.63;10595668;28;20059;-83
2023/12/17 09:47:56;;;;;;;11.40;2.15;;;;;;;19.36;100.00;102496.09;10594406;28;20514;-81
2023/12/17 09:53:18;;;;;;;12.88;5.38;;;;;;;19.23;100.00;102483.50;10601563;27;20084;-82
2023/12/17 09:58:43;;;;;;;12.02;3.42;;;;;;;19.21;100.00;102504.06;10601582;27;20516;-85
2023/12/17 10:04:05;;;;;;;50.28;26.60;;;;;;;19.14;100.00;102503.97;10609973;27;20059;-80
2023/12/17 10:09:27;;;;;;;202.40;83.28;;;;;;;19.50;100.00;102498.94;10608778;27;20055;-80
2023/12/17 10:14:52;;;;;;;47.22;30.15;;;;;;;20.05;100.00;102493.88;10605298;27;20683;-80
2023/12/17 10:20:19;;;;;;;31.00;15.82;;;;;;;19.74;100.00;102491.06;10593798;27;20043;-83
2023/12/17 10:25:43;;;;;;;32.78;17.83;;;;;;;19.74;100.00;102477.66;10597307;27;20149;-80
2023/12/17 10:31:12;;;;;;;11.57;6.25;;;;;;;19.85;100.00;102470.56;10598810;27;20039;-81
2023/12/17 10:36:37;;;;;;;14.30;7.40;;;;;;;19.61;100.00;102491.88;10595529;27;20062;-80
2023/12/17 10:42:01;;;;;;;6.85;2.40;;;;;;;20.20;100.00;102484.13;10591739;27;20047;-81
2023/12/17 10:53:08;;;;;;;12.68;6.45;;;;;;;18.67;100.00;102477.69;10586608;27;20043;-80
2023/12/17 10:58:31;;;;;;;20.13;13.02;;;;;;;17.71;100.00;102483.63;10594465;27;20050;-80
2023/12/17 11:03:56;;;;;;;30.58;15.48;;;;;;;17.59;100.00;102472.75;10608352;27;20062;-80
2023/12/17 11:09:19;;;;;;;13.95;7.35;;;;;;;17.44;100.00;102476.97;10607430;27;20043;-79
2023/12/17 11:14:44;;;;;;;8.07;3.38;;;;;;;17.91;100.00;102479.47;10574787;28;20335;-79
2023/12/17 11:20:09;;;;;;;6.90;3.60;;;;;;;18.39;100.00;102484.47;10583663;27;20053;-79
2023/12/17 11:25:33;;;;;;;10.75;6.60;;;;;;;18.84;100.00;102483.22;10606404;27;20139;-80
2023/12/17 11:30:56;;;;;;;43.85;23.48;;;;;;;19.06;100.00;102480.72;10592595;27;20044;-80
2023/12/17 11:36:21;;;;;;;10.65;4.13;;;;;;;18.96;100.00;102472.63;10594730;27;20043;-80
2023/12/17 11:41:43;;;;;;;7.78;2.90;;;;;;;18.88;100.00;102483.25;10605367;27;20062;-80
2023/12/17 11:47:06;;;;;;;9.95;4.93;;;;;;;19.06;100.00;102472.69;10572827;27;20440;-80
2023/12/17 11:52:31;;;;;;;10.43;3.17;;;;;;;18.90;100.00;102468.09;10572857;27;20131;-79
2023/12/17 11:58:01;;;;;;;10.73;3.35;;;;;;;18.57;100.00;102479.38;10601830;27;20051;-78
2023/12/17 12:03:24;;;;;;;8.30;4.25;;;;;;;18.65;100.00;102485.69;10585633;27;20058;-78
2023/12/17 12:08:48;;;;;;;7.40;3.38;;;;;;;18.70;100.00;102475.06;10597928;27;20065;-79
2023/12/17 12:14:11;;;;;;;10.50;6.53;;;;;;;18.71;100.00;102488.41;10603637;27;20047;-79
2023/12/17 12:19:34;;;;;;;13.23;3.17;;;;;;;18.73;100.00;102474.16;10600766;27;20051;-78
2023/12/17 12:24:58;;;;;;;9.32;4.15;;;;;;;18.39;100.00;102481.81;10600465;27;20035;-78
2023/12/17 12:30:29;;;;;;;8.77;4.55;;;;;;;18.52;100.00;102480.16;10576469;27;20055;-78
2023/12/17 12:35:51;;;;;;;10.40;4.90;;;;;;;18.84;100.00;102484.06;10602369;27;20070;-80
2023/12/17 12:41:15;;;;;;;7.57;3.03;;;;;;;19.02;100.00;102486.94;10588647;27;20059;-79
2023/12/17 12:46:37;;;;;;;10.63;2.50;;;;;;;18.71;100.00;102487.53;10588262;27;20057;-80
2023/12/17 12:52:00;;;;;;;13.52;8.63;;;;;;;18.54;100.00;102481.06;10516843;28;20481;-79
2023/12/17 12:57:24;;;;;;;7.97;2.80;;;;;;;18.22;100.00;102486.97;10499871;28;20058;-80
2023/12/17 13:02:46;;;;;;;6.40;2.13;;;;;;;18.11;100.00;102488.63;10515804;28;20236;-78
2023/12/17 13:08:09;;;;;;;12.68;9.35;;;;;;;18.05;100.00;102479.63;10526946;28;20673;-79
2023/12/17 13:13:33;;;;;;;7.78;2.83;;;;;;;17.75;100.00;102475.66;10498917;28;20054;-79
2023/12/17 13:18:55;;;;;;;9.88;6.38;;;;;;;17.45;100.00;102486.78;10528443;28;20051;-79
2023/12/17 13:24:18;;;;;;;14.18;4.80;;;;;;;16.71;100.00;102486.44;10514991;28;20052;-79
2023/12/17 13:29:41;;;;;;;11.10;4.95;;;;;;;16.43;100.00;102497.41;10525902;28;20089;-77
2023/12/17 13:35:05;;;;;;;11.45;5.80;;;;;;;16.34;100.00;102495.44;10504353;28;20048;-78
2023/12/17 13:40:29;;;;;;;8.98;3.30;;;;;;;16.48;100.00;102502.81;10528887;28;20490;-78
2023/12/17 13:45:53;;;;;;;13.38;7.15;;;;;;;16.69;100.00;102490.84;10509762;28;20052;-78
2023/12/17 13:51:16;;;;;;;8.50;3.08;;;;;;;16.89;100.00;102490.28;10425995;28;1957330;-77
2023/12/17 13:56:39;;;;;;;8.18;3.10;;;;;;;16.90;100.00;102481.44;10508048;28;20058;-78
2023/12/17 14:02:03;;;;;;;7.38;3.97;;;;;;;16.60;100.00;102482.69;10489268;28;20052;-78
2023/12/17 14:07:26;;;;;;;8.02;2.80;;;;;;;16.54;100.00;102487.84;10488722;28;20051;-77
2023/12/17 14:12:49;;;;;;;23.17;15.55;;;;;;;16.77;100.00;102495.41;10498784;28;20506;-78
2023/12/17 14:18:13;;;;;;;13.65;5.15;;;;;;;16.99;100.00;102500.28;10487551;28;20037;-79
2023/12/17 14:23:36;;;;;;;6.72;5.05;;;;;;;16.96;100.00;102494.88;10488866;28;20059;-79
2023/12/17 14:28:58;;;;;;;11.40;5.18;;;;;;;16.98;100.00;102495.81;10475606;28;20056;-79
2023/12/17 14:34:22;;;;;;;31.30;20.77;;;;;;;16.86;100.00;102503.59;10474890;28;20098;-78
2023/12/17 14:39:45;;;;;;;11.10;5.43;;;;;;;16.79;100.00;102499.91;10487728;28;20052;-78
2023/12/17 14:45:08;;;;;;;10.07;3.33;;;;;;;16.69;100.00;102498.84;10523835;28;20482;-79
2023/12/17 14:50:34;;;;;;;11.73;6.40;;;;;;;16.66;100.00;102504.13;10565834;28;20055;-78
2023/12/17 14:55:57;;;;;;;45.55;27.13;;;;;;;16.54;100.00;102495.84;10579984;28;20051;-79
2023/12/17 15:01:20;;;;;;;16.52;8.38;;;;;;;16.52;100.00;102508.28;10579466;28;20179;-78
2023/12/17 15:06:43;;;;;;;25.52;13.63;;;;;;;16.50;100.00;102509.09;10565640;28;20039;-78
2023/12/17 15:12:06;;;;;;;10.60;5.10;;;;;;;16.36;100.00;102495.50;10562561;28;20058;-78
2023/12/17 15:17:29;;;;;;;23.30;15.15;;;;;;;16.25;100.00;102491.72;10578554;28;20047;-76
2023/12/17 15:22:54;;;;;;;8.10;5.00;;;;;;;16.17;100.00;102496.00;10564290;28;20040;-77
2023/12/17 15:28:16;;;;;;;9.40;5.68;;;;;;;16.06;100.00;102484.22;10579053;28;20047;-78
2023/12/17 15:33:40;;;;;;;22.15;12.15;;;;;;;16.16;100.00;102496.84;10577095;28;20056;-78
2023/12/17 15:39:04;;;;;;;15.85;8.73;;;;;;;16.17;100.00;102502.22;10527772;28;20647;-78
2023/12/17 15:44:28;;;;;;;8.45;2.95;;;;;;;16.24;100.00;102497.91;10578114;28;20055;-79
2023/12/17 15:49:50;;;;;;;6.22;3.28;;;;;;;16.17;100.00;102506.66;10601137;27;20096;-79
2023/12/17 15:55:14;;;;;;;8.30;2.78;;;;;;;16.16;100.00;102510.19;10590347;27;20046;-79
2023/12/17 16:00:38;;;;;;;8.90;2.95;;;;;;;16.05;100.00;102504.63;10589531;27;20138;-79
2023/12/17 16:06:00;;;;;;;8.05;2.80;;;;;;;16.07;100.00;102515.34;10591619;27;20178;-79
2023/12/17 16:11:25;;;;;;;8.57;3.05;;;;;;;16.08;100.00;102523.34;10562439;28;20092;-79
2023/12/17 16:16:47;;;;;;;7.13;3.40;;;;;;;16.07;100.00;102528.66;10562703;28;20051;-79
2023/12/17 16:22:10;;;;;;;9.40;3.08;;;;;;;16.09;100.00;102524.25;10562180;28;20139;-78
2023/12/17 16:27:36;;;;;;;6.60;2.83;;;;;;;15.95;100.00;102534.59;10573491;27;20039;-79
2023/12/17 16:32:58;;;;;;;10.55;4.07;;;;;;;15.89;100.00;102531.78;10603058;27;20099;-78
2023/12/17 16:38:21;;;;;;;8.07;3.85;;;;;;;15.91;100.00;102535.41;10603628;27;20082;-77
2023/12/17 16:43:46;;;;;;;10.00;5.13;;;;;;;16.10;100.00;102542.03;10588724;27;20103;-78
2023/12/17 16:49:09;;;;;;;16.15;5.78;;;;;;;16.09;100.00;102541.13;10588689;27;20107;-77
2023/12/17 16:54:31;;;;;;;9.18;4.93;;;;;;;16.09;100.00;102551.78;10603285;27;20446;-78
2023/12/17 16:59:56;;;;;;;9.70;6.93;;;;;;;16.08;100.00;102560.63;10589479;27;20656;-78
2023/12/17 17:05:18;;;;;;;14.98;9.30;;;;;;;16.00;100.00;102553.38;10602730;27;20092;-78
2023/12/17 17:10:40;;;;;;;16.90;8.00;;;;;;;16.14;100.00;102549.25;10574678;28;20047;-78
2023/12/17 17:16:06;;;;;;;11.65;7.32;;;;;;;16.01;100.00;102544.50;10564709;27;20045;-78
2023/12/17 17:21:28;;;;;;;10.35;7.93;;;;;;;16.06;100.00;102548.16;10602483;27;20078;-78
2023/12/17 17:26:51;;;;;;;8.80;6.03;;;;;;;16.13;100.00;102556.34;10587352;27;20043;-78
2023/12/17 17:32:15;;;;;;;7.07;5.05;;;;;;;16.13;100.00;102542.13;10601514;28;20584;-78
2023/12/17 17:37:38;;;;;;;10.27;6.40;;;;;;;16.10;100.00;102542.94;10572690;28;20043;-78
2023/12/17 17:43:01;;;;;;;12.65;8.27;;;;;;;16.12;100.00;102551.88;10559268;28;20052;-77
2023/12/17 17:48:25;;;;;;;16.05;11.98;;;;;;;15.98;100.00;102549.75;10572282;28;20493;-78
2023/12/17 17:53:49;;;;;;;7.65;5.35;;;;;;;15.63;100.00;102551.59;10570738;28;20571;-79
2023/12/17 17:59:12;;;;;;;8.63;4.13;;;;;;;15.45;100.00;102573.34;10597056;28;20452;-77
2023/12/17 18:04:36;;;;;;;11.95;6.18;;;;;;;15.52;100.00;102554.00;10594560;27;20071;-77
2023/12/17 18:09:59;;;;;;;10.43;5.50;;;;;;;15.69;100.00;102544.66;10560768;28;20096;-79
2023/12/17 18:15:23;;;;;;;11.13;7.22;;;;;;;15.85;100.00;102541.50;10585541;27;20396;-76
2023/12/17 18:20:47;;;;;;;10.88;8.30;;;;;;;15.87;100.00;102545.09;10584545;27;20513;-76
2023/12/17 18:26:10;;;;;;;8.10;5.80;;;;;;;15.85;100.00;102544.16;10597915;27;20058;-80
2023/12/17 18:31:32;;;;;;;9.23;4.05;;;;;;;15.87;100.00;102537.13;10599710;27;20087;-78
2023/12/17 18:36:56;;;;;;;8.63;6.10;;;;;;;15.93;100.00;102539.91;10605953;27;20043;-79
2023/12/17 18:42:19;;;;;;;10.60;8.13;;;;;;;15.90;100.00;102534.50;10592699;27;20047;-78
2023/12/17 18:47:41;;;;;;;8.40;5.43;;;;;;;15.91;100.00;102525.66;10598939;27;20074;-79
2023/12/17 18:53:06;;;;;;;7.47;4.72;;;;;;;15.95;100.00;102527.50;10599875;27;20048;-79
2023/12/17 18:58:29;;;;;;;6.93;4.72;;;;;;;15.97;100.00;102521.31;10590295;27;20043;-79
2023/12/17 19:03:52;;;;;;;9.10;4.00;;;;;;;15.98;100.00;102520.47;10584459;27;20069;-78
2023/12/17 19:09:16;;;;;;;15.70;5.40;;;;;;;16.01;100.00;102513.44;10574632;27;20043;-76
2023/12/17 19:14:41;;;;;;;18.83;10.00;;;;;;;16.04;100.00;102515.25;10589182;27;20055;-77
2023/12/17 19:20:05;;;;;;;7.75;4.60;;;;;;;15.97;100.00;102511.56;10585772;27;20565;-78
2023/12/17 19:25:29;;;;;;;10.98;5.47;;;;;;;16.03;100.00;102518.78;10586016;27;20596;-78
2023/12/17 19:30:51;;;;;;;12.80;6.00;;;;;;;16.08;100.00;102517.16;10588110;27;20043;-78
2023/12/17 19:36:14;;;;;;;13.35;6.90;;;;;;;16.12;100.00;102519.88;10598579;27;20078;-78
2023/12/17 19:41:38;;;;;;;14.30;6.55;;;;;;;16.13;100.00;102515.47;10599361;27;20043;-80
2023/12/17 19:47:01;;;;;;;10.25;4.82;;;;;;;16.02;100.00;102511.66;10603456;27;20070;-83
2023/12/17 19:52:23;;;;;;;8.00;3.88;;;;;;;16.03;100.00;102518.78;10514446;28;20069;-80
2023/12/17 19:57:47;;;;;;;9.98;5.07;;;;;;;16.06;100.00;102529.53;10524309;28;20049;-82
2023/12/17 20:03:10;;;;;;;12.32;5.78;;;;;;;16.12;100.00;102524.31;10524169;28;20047;-82
2023/12/17 20:08:32;;;;;;;10.88;4.35;;;;;;;16.09;100.00;102525.13;10511030;28;20084;-81
2023/12/17 20:13:56;;;;;;;13.25;7.60;;;;;;;16.10;100.00;102526.03;10522326;28;20109;-80
2023/12/17 20:19:18;;;;;;;12.55;5.93;;;;;;;16.12;100.00;102524.31;10514688;28;20082;-80
2023/12/17 20:24:41;;;;;;;8.63;5.00;;;;;;;16.11;100.00;102528.75;10531966;28;20040;-80
2023/12/17 20:30:07;;;;;;;18.48;7.25;;;;;;;16.21;100.00;102521.84;10506151;28;20505;-80
2023/12/17 20:35:29;;;;;;;12.30;6.90;;;;;;;16.27;100.00;102524.66;10523779;28;20055;-81
2023/12/17 20:40:52;;;;;;;13.32;4.75;;;;;;;16.27;100.00;102511.31;10522583;28;20048;-78
2023/12/17 20:46:16;;;;;;;5.65;3.42;;;;;;;16.18;100.00;102512.03;10518127;28;20770;-78
2023/12/17 20:51:38;;;;;;;9.05;2.95;;;;;;;16.15;100.00;102497.72;10548474;28;20047;-79
2023/12/17 20:57:01;;;;;;;9.40;3.40;;;;;;;16.18;100.00;102506.69;10566276;28;20055;-79
2023/12/17 21:02:25;;;;;;;9.15;3.55;;;;;;;16.20;100.00;102507.63;10563295;28;20437;-78
2023/12/17 21:07:48;;;;;;;9.52;3.85;;;;;;;16.22;100.00;102499.66;10535818;28;20478;-78
2023/12/17 21:13:11;;;;;;;5.85;3.63;;;;;;;16.22;100.00;102483.66;10578902;27;20290;-79
2023/12/17 21:18:35;;;;;;;6.70;2.80;;;;;;;16.24;100.00;102485.50;10601913;27;20069;-78
2023/12/17 21:23:57;;;;;;;4.70;2.75;;;;;;;16.23;100.00;102481.03;10572570;28;20051;-79
2023/12/17 21:29:20;;;;;;;9.68;3.38;;;;;;;16.19;100.00;102471.19;10535400;28;20052;-78
2023/12/17 21:34:44;;;;;;;5.35;2.70;;;;;;;16.18;100.00;102489.81;10540936;28;20064;-79
2023/12/17 21:40:08;;;;;;;11.20;6.03;;;;;;;16.22;100.00;102479.22;10553670;28;20044;-78
2023/12/17 21:45:30;;;;;;;10.85;5.18;;;;;;;16.19;100.00;102475.63;10554886;28;20047;-79
2023/12/17 21:50:56;;;;;;;9.68;5.05;;;;;;;16.21;100.00;102472.09;10523558;28;20052;-79
2023/12/17 21:56:19;;;;;;;9.50;3.83;;;;;;;16.21;100.00;102485.41;10529396;28;20048;-79
2023/12/17 22:01:41;;;;;;;7.15;4.63;;;;;;;16.22;100.00;102465.00;10521780;28;20443;-79
2023/12/17 22:07:05;;;;;;;6.88;4.28;;;;;;;16.23;100.00;102457.03;10539966;28;20109;-78
2023/12/17 22:12:28;;;;;;;5.68;2.95;;;;;;;16.26;100.00;102456.22;10539282;28;20519;-78
2023/12/17 22:17:50;;;;;;;16.48;7.07;;;;;;;16.22;100.00;102436.59;10483513;28;20044;-79
2023/12/17 22:23:14;;;;;;;7.00;4.10;;;;;;;16.18;100.00;102433.84;10483520;28;20046;-79
2023/12/17 22:28:37;;;;;;;10.48;4.55;;;;;;;16.22;100.00;102430.34;10502399;28;20043;-78
2023/12/17 22:33:59;;;;;;;5.93;3.00;;;;;;;16.17;100.00;102421.38;10538600;28;20056;-78
2023/12/17 22:39:24;;;;;;;5.85;3.75;;;;;;;16.19;100.00;102419.66;10524334;28;20367;-78
2023/12/17 22:44:47;;;;;;;9.05;3.90;;;;;;;16.16;100.00;102414.25;10537442;28;20039;-79
2023/12/17 22:50:10;;;;;;;8.18;2.63;;;;;;;16.16;100.00;102409.81;10561469;27;20224;-79
2023/12/17 22:55:34;;;;;;;4.07;2.35;;;;;;;16.18;100.00;102400.09;10593036;27;20043;-79
2023/12/17 23:00:56;;;;;;;5.15;2.33;;;;;;;16.31;100.00;102403.88;10593844;27;20054;-79
2023/12/17 23:06:19;;;;;;;3.20;2.15;;;;;;;16.29;100.00;102387.84;10574509;27;20573;-80
2023/12/17 23:11:42;;;;;;;5.63;2.22;;;;;;;16.27;100.00;102380.72;10607422;27;20051;-79
2023/12/17 23:17:06;;;;;;;5.65;2.20;;;;;;;16.24;100.00;102381.56;10602986;27;20051;-79
2023/12/17 23:22:28;;;;;;;5.22;2.40;;;;;;;16.31;100.00;102388.78;10602471;27;20301;-78
2023/12/17 23:27:52;;;;;;;6.75;2.83;;;;;;;16.26;100.00;102394.91;10564062;28;20055;-79
2023/12/17 23:33:15;;;;;;;9.70;2.47;;;;;;;16.31;100.00;102391.47;10549853;27;20590;-79
2023/12/17 23:38:38;;;;;;;6.65;2.22;;;;;;;16.33;100.00;102392.41;10593531;27;20103;-78
2023/12/17 23:44:01;;;;;;;7.50;2.55;;;;;;;16.39;100.00;102398.69;10592853;27;20046;-79
2023/12/17 23:49:29;;;;;;;8.32;3.65;;;;;;;16.35;100.00;102406.63;10571326;27;20055;-78
2023/12/17 23:54:51;;;;;;;5.45;2.50;;;;;;;16.06;100.00;102401.63;10563443;28;20063;-79
